sensor_id;sensor_type;location;lat;lon;timestamp;P1;durP1;ratioP1;P2;durP2;ratioP2
71435;SDS011;59251;51.326;12.370;2023-08-17T00:01:45;12.13;;;7.30;;
71435;SDS011;59251;51.326;12.370;2023-08-17T00:04:12;12.57;;;7.05;;
71435;SDS011;59251;51.326;12.370;2023-08-17T00:06:39;9.77;;;6.73;;
71435;SDS011;59251;51.326;12.370;2023-08-17T00:09:06;14.43;;;7.20;;
71435;SDS011;59251;51.326;12.370;2023-08-17T00:11:34;12.02;;;6.82;;
71435;SDS011;59251;51.326;12.370;2023-08-17T00:14:01;11.40;;;6.72;;
71435;SDS011;59251;51.326;12.370;2023-08-17T00:16:28;11.52;;;7.13;;
71435;SDS011;59251;51.326;12.370;2023-08-17T00:18:55;12.70;;;6.93;;
71435;SDS011;59251;51.326;12.370;2023-08-17T00:21:22;12.40;;;7.15;;
71435;SDS011;59251;51.326;12.370;2023-08-17T00:23:49;11.98;;;6.72;;
71435;SDS011;59251;51.326;12.370;2023-08-17T00:26:16;11.88;;;7.07;;
71435;SDS011;59251;51.326;12.370;2023-08-17T00:28:44;11.75;;;6.93;;
71435;SDS011;59251;51.326;12.370;2023-08-17T00:31:10;11.23;;;6.57;;
71435;SDS011;59251;51.326;12.370;2023-08-17T00:33:37;11.20;;;6.70;;
71435;SDS011;59251;51.326;12.370;2023-08-17T00:36:07;13.50;;;6.75;;
71435;SDS011;59251;51.326;12.370;2023-08-17T00:38:33;10.93;;;6.95;;
71435;SDS011;59251;51.326;12.370;2023-08-17T00:41:00;15.25;;;6.97;;
71435;SDS011;59251;51.326;12.370;2023-08-17T00:43:27;12.47;;;7.07;;
71435;SDS011;59251;51.326;12.370;2023-08-17T00:45:56;9.57;;;5.97;;
71435;SDS011;59251;51.326;12.370;2023-08-17T00:48:22;12.75;;;7.05;;
71435;SDS011;59251;51.326;12.370;2023-08-17T00:50:50;10.25;;;6.47;;
71435;SDS011;59251;51.326;12.370;2023-08-17T00:53:19;11.48;;;6.82;;
71435;SDS011;59251;51.326;12.370;2023-08-17T00:55:49;10.70;;;6.83;;
71435;SDS011;59251;51.326;12.370;2023-08-17T00:58:18;11.48;;;6.57;;
71435;SDS011;59251;51.326;12.370;2023-08-17T01:00:46;11.93;;;7.10;;
71435;SDS011;59251;51.326;12.370;2023-08-17T01:03:14;10.85;;;6.68;;
71435;SDS011;59251;51.326;12.370;2023-08-17T01:05:42;10.35;;;6.82;;
71435;SDS011;59251;51.326;12.370;2023-08-17T01:08:09;12.13;;;6.33;;
71435;SDS011;59251;51.326;12.370;2023-08-17T01:10:38;11.43;;;6.03;;
71435;SDS011;59251;51.326;12.370;2023-08-17T01:13:15;12.95;;;7.07;;
71435;SDS011;59251;51.326;12.370;2023-08-17T01:15:49;9.98;;;6.55;;
71435;SDS011;59251;51.326;12.370;2023-08-17T01:18:21;12.20;;;6.55;;
71435;SDS011;59251;51.326;12.370;2023-08-17T01:20:49;11.97;;;6.50;;
71435;SDS011;59251;51.326;12.370;2023-08-17T01:23:17;11.07;;;6.55;;
71435;SDS011;59251;51.326;12.370;2023-08-17T01:25:44;11.13;;;7.10;;
71435;SDS011;59251;51.326;12.370;2023-08-17T01:28:11;10.18;;;6.78;;
71435;SDS011;59251;51.326;12.370;2023-08-17T01:30:39;10.55;;;6.75;;
71435;SDS011;59251;51.326;12.370;2023-08-17T01:33:13;10.87;;;6.83;;
71435;SDS011;59251;51.326;12.370;2023-08-17T01:35:44;12.55;;;7.00;;
71435;SDS011;59251;51.326;12.370;2023-08-17T01:38:16;12.88;;;7.05;;
71435;SDS011;59251;51.326;12.370;2023-08-17T01:40:48;12.20;;;7.13;;
71435;SDS011;59251;51.326;12.370;2023-08-17T01:43:16;9.93;;;6.30;;
71435;SDS011;59251;51.326;12.370;2023-08-17T01:45:44;13.13;;;6.80;;
71435;SDS011;59251;51.326;12.370;2023-08-17T01:48:11;14.30;;;6.80;;
71435;SDS011;59251;51.326;12.370;2023-08-17T01:50:37;11.63;;;6.85;;
71435;SDS011;59251;51.326;12.370;2023-08-17T01:53:04;10.52;;;6.50;;
71435;SDS011;59251;51.326;12.370;2023-08-17T01:55:33;11.38;;;6.55;;
71435;SDS011;59251;51.326;12.370;2023-08-17T01:58:00;10.63;;;6.90;;
71435;SDS011;59251;51.326;12.370;2023-08-17T02:00:27;10.50;;;6.70;;
71435;SDS011;59251;51.326;12.370;2023-08-17T02:02:54;10.35;;;6.22;;
71435;SDS011;59251;51.326;12.370;2023-08-17T02:05:20;11.18;;;6.55;;
71435;SDS011;59251;51.326;12.370;2023-08-17T02:07:47;12.07;;;6.93;;
71435;SDS011;59251;51.326;12.370;2023-08-17T02:10:14;12.13;;;6.67;;
71435;SDS011;59251;51.326;12.370;2023-08-17T02:12:42;10.68;;;6.50;;
71435;SDS011;59251;51.326;12.370;2023-08-17T02:15:09;11.02;;;6.82;;
71435;SDS011;59251;51.326;12.370;2023-08-17T02:17:36;11.35;;;7.15;;
71435;SDS011;59251;51.326;12.370;2023-08-17T02:20:03;12.23;;;5.30;;
71435;SDS011;59251;51.326;12.370;2023-08-17T02:22:31;7.73;;;2.90;;
71435;SDS011;59251;51.326;12.370;2023-08-17T02:24:57;7.88;;;3.00;;
71435;SDS011;59251;51.326;12.370;2023-08-17T02:27:24;6.20;;;2.53;;
71435;SDS011;59251;51.326;12.370;2023-08-17T02:29:53;5.50;;;2.17;;
71435;SDS011;59251;51.326;12.370;2023-08-17T02:32:20;7.28;;;1.95;;
71435;SDS011;59251;51.326;12.370;2023-08-17T02:34:47;4.67;;;1.30;;
71435;SDS011;59251;51.326;12.370;2023-08-17T02:37:13;4.95;;;1.00;;
71435;SDS011;59251;51.326;12.370;2023-08-17T02:39:40;4.55;;;0.98;;
71435;SDS011;59251;51.326;12.370;2023-08-17T02:42:07;4.28;;;0.80;;
71435;SDS011;59251;51.326;12.370;2023-08-17T02:44:33;7.63;;;1.10;;
71435;SDS011;59251;51.326;12.370;2023-08-17T02:47:03;4.47;;;0.90;;
71435;SDS011;59251;51.326;12.370;2023-08-17T02:49:30;4.68;;;0.90;;
71435;SDS011;59251;51.326;12.370;2023-08-17T02:51:57;3.70;;;0.73;;
71435;SDS011;59251;51.326;12.370;2023-08-17T02:54:23;5.35;;;0.90;;
71435;SDS011;59251;51.326;12.370;2023-08-17T02:56:50;3.67;;;0.63;;
71435;SDS011;59251;51.326;12.370;2023-08-17T02:59:17;5.17;;;0.67;;
71435;SDS011;59251;51.326;12.370;2023-08-17T03:01:44;3.80;;;0.52;;
71435;SDS011;59251;51.326;12.370;2023-08-17T03:04:13;4.75;;;0.70;;
71435;SDS011;59251;51.326;12.370;2023-08-17T03:06:40;4.00;;;0.70;;
71435;SDS011;59251;51.326;12.370;2023-08-17T03:09:07;3.58;;;0.60;;
71435;SDS011;59251;51.326;12.370;2023-08-17T03:11:34;4.67;;;0.80;;
71435;SDS011;59251;51.326;12.370;2023-08-17T03:14:00;3.90;;;0.70;;
71435;SDS011;59251;51.326;12.370;2023-08-17T03:16:28;4.85;;;0.80;;
71435;SDS011;59251;51.326;12.370;2023-08-17T03:18:55;4.75;;;0.65;;
71435;SDS011;59251;51.326;12.370;2023-08-17T03:21:24;4.70;;;0.88;;
71435;SDS011;59251;51.326;12.370;2023-08-17T03:23:51;4.60;;;0.93;;
71435;SDS011;59251;51.326;12.370;2023-08-17T03:26:18;4.90;;;0.90;;
71435;SDS011;59251;51.326;12.370;2023-08-17T03:28:45;5.22;;;0.75;;
71435;SDS011;59251;51.326;12.370;2023-08-17T03:31:12;5.82;;;0.80;;
71435;SDS011;59251;51.326;12.370;2023-08-17T03:33:38;5.78;;;1.23;;
71435;SDS011;59251;51.326;12.370;2023-08-17T03:36:06;6.13;;;1.20;;
71435;SDS011;59251;51.326;12.370;2023-08-17T03:38:34;5.38;;;0.90;;
71435;SDS011;59251;51.326;12.370;2023-08-17T03:41:03;5.53;;;1.27;;
71435;SDS011;59251;51.326;12.370;2023-08-17T03:43:30;5.10;;;1.23;;
71435;SDS011;59251;51.326;12.370;2023-08-17T03:45:57;5.90;;;1.85;;
71435;SDS011;59251;51.326;12.370;2023-08-17T03:48:24;6.13;;;1.80;;
71435;SDS011;59251;51.326;12.370;2023-08-17T03:50:51;5.03;;;1.48;;
71435;SDS011;59251;51.326;12.370;2023-08-17T03:53:19;7.45;;;1.80;;
71435;SDS011;59251;51.326;12.370;2023-08-17T03:55:47;7.53;;;1.70;;
71435;SDS011;59251;51.326;12.370;2023-08-17T03:58:14;6.68;;;1.75;;
71435;SDS011;59251;51.326;12.370;2023-08-17T04:00:41;7.27;;;1.60;;
71435;SDS011;59251;51.326;12.370;2023-08-17T04:03:08;7.95;;;1.73;;
71435;SDS011;59251;51.326;12.370;2023-08-17T04:05:35;6.72;;;1.60;;
71435;SDS011;59251;51.326;12.370;2023-08-17T04:08:02;7.45;;;1.70;;
71435;SDS011;59251;51.326;12.370;2023-08-17T04:10:29;5.75;;;1.60;;
71435;SDS011;59251;51.326;12.370;2023-08-17T04:12:57;5.57;;;1.30;;
71435;SDS011;59251;51.326;12.370;2023-08-17T04:15:24;7.57;;;2.03;;
71435;SDS011;59251;51.326;12.370;2023-08-17T04:17:50;19.65;;;3.03;;
71435;SDS011;59251;51.326;12.370;2023-08-17T04:20:18;16.77;;;2.42;;
71435;SDS011;59251;51.326;12.370;2023-08-17T04:22:46;11.60;;;2.40;;
71435;SDS011;59251;51.326;12.370;2023-08-17T04:25:13;7.73;;;2.27;;
71435;SDS011;59251;51.326;12.370;2023-08-17T04:27:40;10.45;;;3.00;;
71435;SDS011;59251;51.326;12.370;2023-08-17T04:30:09;18.65;;;2.33;;
71435;SDS011;59251;51.326;12.370;2023-08-17T04:32:48;30.25;;;3.53;;
71435;SDS011;59251;51.326;12.370;2023-08-17T04:35:18;11.13;;;2.60;;
71435;SDS011;59251;51.326;12.370;2023-08-17T04:37:46;9.87;;;2.63;;
71435;SDS011;59251;51.326;12.370;2023-08-17T04:40:13;6.78;;;2.33;;
71435;SDS011;59251;51.326;12.370;2023-08-17T04:42:41;9.95;;;2.47;;
71435;SDS011;59251;51.326;12.370;2023-08-17T04:45:09;8.90;;;2.55;;
71435;SDS011;59251;51.326;12.370;2023-08-17T04:47:39;9.88;;;3.20;;
71435;SDS011;59251;51.326;12.370;2023-08-17T04:50:06;9.27;;;2.83;;
71435;SDS011;59251;51.326;12.370;2023-08-17T04:52:34;12.57;;;3.25;;
71435;SDS011;59251;51.326;12.370;2023-08-17T04:55:01;10.02;;;3.08;;
71435;SDS011;59251;51.326;12.370;2023-08-17T04:57:30;7.00;;;2.70;;
71435;SDS011;59251;51.326;12.370;2023-08-17T04:59:58;10.73;;;3.30;;
71435;SDS011;59251;51.326;12.370;2023-08-17T05:02:26;8.33;;;3.03;;
71435;SDS011;59251;51.326;12.370;2023-08-17T05:04:53;7.20;;;2.60;;
71435;SDS011;59251;51.326;12.370;2023-08-17T05:07:20;7.28;;;2.47;;
71435;SDS011;59251;51.326;12.370;2023-08-17T05:09:46;6.88;;;2.13;;
71435;SDS011;59251;51.326;12.370;2023-08-17T05:12:13;6.78;;;2.05;;
71435;SDS011;59251;51.326;12.370;2023-08-17T05:14:40;7.67;;;2.77;;
71435;SDS011;59251;51.326;12.370;2023-08-17T05:17:07;7.82;;;2.40;;
71435;SDS011;59251;51.326;12.370;2023-08-17T05:19:35;7.18;;;2.50;;
71435;SDS011;59251;51.326;12.370;2023-08-17T05:22:03;8.65;;;2.47;;
71435;SDS011;59251;51.326;12.370;2023-08-17T05:24:30;8.48;;;2.70;;
71435;SDS011;59251;51.326;12.370;2023-08-17T05:26:57;8.17;;;2.40;;
71435;SDS011;59251;51.326;12.370;2023-08-17T05:29:24;6.43;;;2.10;;
71435;SDS011;59251;51.326;12.370;2023-08-17T05:31:50;6.90;;;2.35;;
71435;SDS011;59251;51.326;12.370;2023-08-17T05:34:17;6.88;;;2.30;;
71435;SDS011;59251;51.326;12.370;2023-08-17T05:36:45;8.60;;;2.53;;
71435;SDS011;59251;51.326;12.370;2023-08-17T05:39:12;5.83;;;2.00;;
71435;SDS011;59251;51.326;12.370;2023-08-17T05:41:39;6.43;;;2.08;;
71435;SDS011;59251;51.326;12.370;2023-08-17T05:44:06;7.05;;;2.63;;
71435;SDS011;59251;51.326;12.370;2023-08-17T05:46:33;7.68;;;2.50;;
71435;SDS011;59251;51.326;12.370;2023-08-17T05:49:00;7.65;;;2.35;;
71435;SDS011;59251;51.326;12.370;2023-08-17T05:51:26;8.03;;;2.20;;
71435;SDS011;59251;51.326;12.370;2023-08-17T05:53:55;5.90;;;2.28;;
71435;SDS011;59251;51.326;12.370;2023-08-17T05:56:21;6.55;;;1.80;;
71435;SDS011;59251;51.326;12.370;2023-08-17T05:58:49;6.22;;;2.15;;
71435;SDS011;59251;51.326;12.370;2023-08-17T06:01:15;6.80;;;2.50;;
71435;SDS011;59251;51.326;12.370;2023-08-17T06:03:43;7.33;;;2.20;;
71435;SDS011;59251;51.326;12.370;2023-08-17T06:06:10;6.57;;;2.05;;
71435;SDS011;59251;51.326;12.370;2023-08-17T06:08:37;6.60;;;2.20;;
71435;SDS011;59251;51.326;12.370;2023-08-17T06:11:05;6.40;;;3.00;;
71435;SDS011;59251;51.326;12.370;2023-08-17T06:13:32;7.30;;;2.50;;
71435;SDS011;59251;51.326;12.370;2023-08-17T06:16:00;7.87;;;2.30;;
71435;SDS011;59251;51.326;12.370;2023-08-17T06:18:27;7.20;;;2.90;;
71435;SDS011;59251;51.326;12.370;2023-08-17T06:20:53;7.38;;;2.58;;
71435;SDS011;59251;51.326;12.370;2023-08-17T06:23:20;7.25;;;2.47;;
71435;SDS011;59251;51.326;12.370;2023-08-17T06:25:47;6.18;;;2.30;;
71435;SDS011;59251;51.326;12.370;2023-08-17T06:28:15;6.77;;;2.77;;
71435;SDS011;59251;51.326;12.370;2023-08-17T06:30:42;7.38;;;2.58;;
71435;SDS011;59251;51.326;12.370;2023-08-17T06:33:09;7.88;;;3.30;;
71435;SDS011;59251;51.326;12.370;2023-08-17T06:35:35;7.35;;;2.90;;
71435;SDS011;59251;51.326;12.370;2023-08-17T06:38:02;8.10;;;3.30;;
71435;SDS011;59251;51.326;12.370;2023-08-17T06:40:29;7.93;;;3.37;;
71435;SDS011;59251;51.326;12.370;2023-08-17T06:42:56;10.20;;;3.55;;
71435;SDS011;59251;51.326;12.370;2023-08-17T06:45:24;11.45;;;6.07;;
71435;SDS011;59251;51.326;12.370;2023-08-17T06:47:51;11.07;;;4.60;;
71435;SDS011;59251;51.326;12.370;2023-08-17T06:50:17;9.80;;;5.78;;
71435;SDS011;59251;51.326;12.370;2023-08-17T06:52:44;9.83;;;5.63;;
71435;SDS011;59251;51.326;12.370;2023-08-17T06:55:11;9.65;;;5.80;;
71435;SDS011;59251;51.326;12.370;2023-08-17T06:57:38;11.15;;;6.03;;
71435;SDS011;59251;51.326;12.370;2023-08-17T07:00:05;12.10;;;6.60;;
71435;SDS011;59251;51.326;12.370;2023-08-17T07:02:34;10.93;;;5.28;;
71435;SDS011;59251;51.326;12.370;2023-08-17T07:05:01;12.17;;;5.80;;
71435;SDS011;59251;51.326;12.370;2023-08-17T07:07:29;9.15;;;5.55;;
71435;SDS011;59251;51.326;12.370;2023-08-17T07:09:56;9.48;;;5.03;;
71435;SDS011;59251;51.326;12.370;2023-08-17T07:12:23;8.50;;;4.72;;
71435;SDS011;59251;51.326;12.370;2023-08-17T07:14:50;11.23;;;5.05;;
71435;SDS011;59251;51.326;12.370;2023-08-17T07:17:17;8.10;;;4.70;;
71435;SDS011;59251;51.326;12.370;2023-08-17T07:19:45;8.68;;;4.50;;
71435;SDS011;59251;51.326;12.370;2023-08-17T07:22:11;10.50;;;4.63;;
71435;SDS011;59251;51.326;12.370;2023-08-17T07:24:38;8.65;;;4.40;;
71435;SDS011;59251;51.326;12.370;2023-08-17T07:27:05;9.85;;;5.43;;
71435;SDS011;59251;51.326;12.370;2023-08-17T07:29:31;10.87;;;5.77;;
71435;SDS011;59251;51.326;12.370;2023-08-17T07:31:58;9.73;;;5.85;;
71435;SDS011;59251;51.326;12.370;2023-08-17T07:34:27;9.50;;;6.15;;
71435;SDS011;59251;51.326;12.370;2023-08-17T07:36:55;13.15;;;7.20;;
71435;SDS011;59251;51.326;12.370;2023-08-17T07:39:22;14.25;;;7.85;;
71435;SDS011;59251;51.326;12.370;2023-08-17T07:41:49;13.37;;;7.70;;
71435;SDS011;59251;51.326;12.370;2023-08-17T07:44:15;11.85;;;7.57;;
71435;SDS011;59251;51.326;12.370;2023-08-17T07:46:42;12.32;;;7.80;;
71435;SDS011;59251;51.326;12.370;2023-08-17T07:49:09;13.65;;;7.50;;
71435;SDS011;59251;51.326;12.370;2023-08-17T07:51:36;13.25;;;7.78;;
71435;SDS011;59251;51.326;12.370;2023-08-17T07:54:04;13.83;;;8.37;;
71435;SDS011;59251;51.326;12.370;2023-08-17T07:56:31;15.05;;;8.25;;
71435;SDS011;59251;51.326;12.370;2023-08-17T07:58:58;11.77;;;7.80;;
71435;SDS011;59251;51.326;12.370;2023-08-17T08:01:24;13.60;;;8.40;;
71435;SDS011;59251;51.326;12.370;2023-08-17T08:03:51;13.40;;;7.95;;
71435;SDS011;59251;51.326;12.370;2023-08-17T08:06:18;14.10;;;8.67;;
71435;SDS011;59251;51.326;12.370;2023-08-17T08:08:45;12.55;;;8.20;;
71435;SDS011;59251;51.326;12.370;2023-08-17T08:11:14;13.38;;;8.95;;
71435;SDS011;59251;51.326;12.370;2023-08-17T08:13:41;14.75;;;9.73;;
71435;SDS011;59251;51.326;12.370;2023-08-17T08:16:07;15.50;;;9.07;;
71435;SDS011;59251;51.326;12.370;2023-08-17T08:18:34;16.40;;;9.03;;
71435;SDS011;59251;51.326;12.370;2023-08-17T08:21:01;16.70;;;10.25;;
71435;SDS011;59251;51.326;12.370;2023-08-17T08:23:27;14.25;;;9.10;;
71435;SDS011;59251;51.326;12.370;2023-08-17T08:25:54;12.85;;;9.68;;
71435;SDS011;59251;51.326;12.370;2023-08-17T08:28:24;13.23;;;8.93;;
71435;SDS011;59251;51.326;12.370;2023-08-17T08:30:51;15.87;;;9.77;;
71435;SDS011;59251;51.326;12.370;2023-08-17T08:33:18;14.23;;;8.93;;
71435;SDS011;59251;51.326;12.370;2023-08-17T08:35:45;13.65;;;9.00;;
71435;SDS011;59251;51.326;12.370;2023-08-17T08:38:13;20.52;;;10.00;;
71435;SDS011;59251;51.326;12.370;2023-08-17T08:40:40;16.88;;;10.70;;
71435;SDS011;59251;51.326;12.370;2023-08-17T08:43:08;12.97;;;9.10;;
71435;SDS011;59251;51.326;12.370;2023-08-17T08:45:37;14.23;;;9.48;;
71435;SDS011;59251;51.326;12.370;2023-08-17T08:48:06;16.23;;;10.20;;
71435;SDS011;59251;51.326;12.370;2023-08-17T08:50:35;14.70;;;8.77;;
71435;SDS011;59251;51.326;12.370;2023-08-17T08:53:02;12.00;;;8.95;;
71435;SDS011;59251;51.326;12.370;2023-08-17T08:55:34;11.17;;;8.63;;
71435;SDS011;59251;51.326;12.370;2023-08-17T08:58:03;11.57;;;8.13;;
71435;SDS011;59251;51.326;12.370;2023-08-17T09:00:30;14.07;;;9.35;;
71435;SDS011;59251;51.326;12.370;2023-08-17T09:03:00;13.10;;;8.75;;
71435;SDS011;59251;51.326;12.370;2023-08-17T09:05:28;17.70;;;9.15;;
71435;SDS011;59251;51.326;12.370;2023-08-17T09:07:55;17.23;;;10.53;;
71435;SDS011;59251;51.326;12.370;2023-08-17T09:10:24;15.20;;;8.70;;
71435;SDS011;59251;51.326;12.370;2023-08-17T09:12:50;12.48;;;8.52;;
71435;SDS011;59251;51.326;12.370;2023-08-17T09:15:17;11.75;;;7.78;;
71435;SDS011;59251;51.326;12.370;2023-08-17T09:17:44;11.50;;;8.73;;
71435;SDS011;59251;51.326;12.370;2023-08-17T09:20:17;13.20;;;9.40;;
71435;SDS011;59251;51.326;12.370;2023-08-17T09:23:02;12.57;;;8.88;;
71435;SDS011;59251;51.326;12.370;2023-08-17T09:25:30;13.05;;;8.73;;
71435;SDS011;59251;51.326;12.370;2023-08-17T09:27:59;11.70;;;8.43;;
71435;SDS011;59251;51.326;12.370;2023-08-17T09:30:28;13.15;;;8.73;;
71435;SDS011;59251;51.326;12.370;2023-08-17T09:32:55;14.77;;;9.47;;
71435;SDS011;59251;51.326;12.370;2023-08-17T09:35:23;13.38;;;8.40;;
71435;SDS011;59251;51.326;12.370;2023-08-17T09:37:50;13.05;;;9.15;;
71435;SDS011;59251;51.326;12.370;2023-08-17T09:40:17;11.88;;;8.38;;
71435;SDS011;59251;51.326;12.370;2023-08-17T09:42:43;12.13;;;8.73;;
71435;SDS011;59251;51.326;12.370;2023-08-17T09:45:10;11.60;;;8.70;;
71435;SDS011;59251;51.326;12.370;2023-08-17T09:47:37;17.08;;;9.65;;
71435;SDS011;59251;51.326;12.370;2023-08-17T09:50:05;14.75;;;9.52;;
71435;SDS011;59251;51.326;12.370;2023-08-17T09:52:37;15.02;;;9.65;;
71435;SDS011;59251;51.326;12.370;2023-08-17T09:55:05;14.02;;;9.32;;
71435;SDS011;59251;51.326;12.370;2023-08-17T09:57:34;13.57;;;9.57;;
71435;SDS011;59251;51.326;12.370;2023-08-17T10:00:02;14.40;;;8.80;;
71435;SDS011;59251;51.326;12.370;2023-08-17T10:02:31;15.00;;;9.65;;
71435;SDS011;59251;51.326;12.370;2023-08-17T10:04:58;13.82;;;9.82;;
71435;SDS011;59251;51.326;12.370;2023-08-17T10:07:28;13.00;;;9.95;;
71435;SDS011;59251;51.326;12.370;2023-08-17T10:10:00;13.57;;;9.50;;
71435;SDS011;59251;51.326;12.370;2023-08-17T10:12:30;13.85;;;9.57;;
71435;SDS011;59251;51.326;12.370;2023-08-17T10:15:03;14.50;;;10.60;;
71435;SDS011;59251;51.326;12.370;2023-08-17T10:17:35;14.18;;;9.00;;
71435;SDS011;59251;51.326;12.370;2023-08-17T10:20:09;15.38;;;10.48;;
71435;SDS011;59251;51.326;12.370;2023-08-17T10:22:39;13.70;;;9.13;;
71435;SDS011;59251;51.326;12.370;2023-08-17T10:25:12;12.73;;;8.77;;
71435;SDS011;59251;51.326;12.370;2023-08-17T10:27:39;12.93;;;9.65;;
71435;SDS011;59251;51.326;12.370;2023-08-17T10:30:08;13.98;;;9.45;;
71435;SDS011;59251;51.326;12.370;2023-08-17T10:32:36;14.02;;;9.40;;
71435;SDS011;59251;51.326;12.370;2023-08-17T10:35:04;13.93;;;9.43;;
71435;SDS011;59251;51.326;12.370;2023-08-17T10:37:32;12.98;;;9.25;;
71435;SDS011;59251;51.326;12.370;2023-08-17T10:39:59;15.85;;;10.02;;
71435;SDS011;59251;51.326;12.370;2023-08-17T10:42:31;13.82;;;8.98;;
71435;SDS011;59251;51.326;12.370;2023-08-17T10:44:58;14.65;;;8.57;;
71435;SDS011;59251;51.326;12.370;2023-08-17T10:47:27;14.47;;;9.10;;
71435;SDS011;59251;51.326;12.370;2023-08-17T10:49:57;16.98;;;8.82;;
71435;SDS011;59251;51.326;12.370;2023-08-17T10:52:25;12.57;;;9.05;;
71435;SDS011;59251;51.326;12.370;2023-08-17T10:54:53;12.07;;;8.23;;
71435;SDS011;59251;51.326;12.370;2023-08-17T10:57:24;11.77;;;8.70;;
71435;SDS011;59251;51.326;12.370;2023-08-17T11:00:11;12.20;;;8.67;;
71435;SDS011;59251;51.326;12.370;2023-08-17T11:02:40;13.85;;;7.97;;
71435;SDS011;59251;51.326;12.370;2023-08-17T11:05:09;18.27;;;8.85;;
71435;SDS011;59251;51.326;12.370;2023-08-17T11:07:41;12.45;;;8.38;;
71435;SDS011;59251;51.326;12.370;2023-08-17T11:10:12;15.27;;;8.30;;
71435;SDS011;59251;51.326;12.370;2023-08-17T11:12:53;11.07;;;8.03;;
71435;SDS011;59251;51.326;12.370;2023-08-17T11:15:24;12.75;;;7.97;;
71435;SDS011;59251;51.326;12.370;2023-08-17T11:17:51;11.68;;;8.65;;
71435;SDS011;59251;51.326;12.370;2023-08-17T11:20:18;12.57;;;8.15;;
71435;SDS011;59251;51.326;12.370;2023-08-17T11:22:45;16.00;;;9.30;;
71435;SDS011;59251;51.326;12.370;2023-08-17T11:25:12;13.60;;;8.27;;
71435;SDS011;59251;51.326;12.370;2023-08-17T11:27:39;11.10;;;8.00;;
71435;SDS011;59251;51.326;12.370;2023-08-17T11:30:06;14.05;;;7.80;;
71435;SDS011;59251;51.326;12.370;2023-08-17T11:32:35;11.50;;;8.25;;
71435;SDS011;59251;51.326;12.370;2023-08-17T11:35:02;14.15;;;8.05;;
71435;SDS011;59251;51.326;12.370;2023-08-17T11:37:29;14.87;;;8.10;;
71435;SDS011;59251;51.326;12.370;2023-08-17T11:39:56;12.68;;;7.63;;
71435;SDS011;59251;51.326;12.370;2023-08-17T11:42:23;10.57;;;6.70;;
71435;SDS011;59251;51.326;12.370;2023-08-17T11:44:49;12.80;;;7.00;;
71435;SDS011;59251;51.326;12.370;2023-08-17T11:47:16;12.07;;;7.40;;
71435;SDS011;59251;51.326;12.370;2023-08-17T11:49:45;10.97;;;7.47;;
71435;SDS011;59251;51.326;12.370;2023-08-17T11:52:14;10.18;;;7.10;;
71435;SDS011;59251;51.326;12.370;2023-08-17T11:54:41;9.30;;;6.40;;
71435;SDS011;59251;51.326;12.370;2023-08-17T11:57:08;12.55;;;7.78;;
71435;SDS011;59251;51.326;12.370;2023-08-17T11:59:34;13.52;;;7.65;;
71435;SDS011;59251;51.326;12.370;2023-08-17T12:02:01;10.17;;;7.07;;
71435;SDS011;59251;51.326;12.370;2023-08-17T12:04:28;12.20;;;7.35;;
71435;SDS011;59251;51.326;12.370;2023-08-17T12:06:56;15.15;;;6.90;;
71435;SDS011;59251;51.326;12.370;2023-08-17T12:09:23;13.18;;;9.55;;
71435;SDS011;59251;51.326;12.370;2023-08-17T12:11:53;12.45;;;7.97;;
71435;SDS011;59251;51.326;12.370;2023-08-17T12:14:25;14.87;;;7.50;;
71435;SDS011;59251;51.326;12.370;2023-08-17T12:16:52;11.27;;;8.15;;
71435;SDS011;59251;51.326;12.370;2023-08-17T12:19:23;12.82;;;7.93;;
71435;SDS011;59251;51.326;12.370;2023-08-17T12:21:51;10.25;;;7.90;;
71435;SDS011;59251;51.326;12.370;2023-08-17T12:24:19;11.75;;;7.90;;
71435;SDS011;59251;51.326;12.370;2023-08-17T12:26:46;11.00;;;7.90;;
71435;SDS011;59251;51.326;12.370;2023-08-17T12:29:13;10.25;;;7.80;;
71435;SDS011;59251;51.326;12.370;2023-08-17T12:31:40;10.95;;;7.60;;
71435;SDS011;59251;51.326;12.370;2023-08-17T12:34:07;10.70;;;7.40;;
71435;SDS011;59251;51.326;12.370;2023-08-17T12:36:34;13.18;;;7.93;;
71435;SDS011;59251;51.326;12.370;2023-08-17T12:39:03;11.83;;;8.00;;
71435;SDS011;59251;51.326;12.370;2023-08-17T12:41:32;10.88;;;7.95;;
71435;SDS011;59251;51.326;12.370;2023-08-17T12:43:59;12.52;;;8.43;;
71435;SDS011;59251;51.326;12.370;2023-08-17T12:46:26;10.30;;;7.78;;
71435;SDS011;59251;51.326;12.370;2023-08-17T12:48:53;10.68;;;7.97;;
71435;SDS011;59251;51.326;12.370;2023-08-17T12:51:19;11.87;;;8.07;;
71435;SDS011;59251;51.326;12.370;2023-08-17T12:53:46;10.93;;;7.63;;
71435;SDS011;59251;51.326;12.370;2023-08-17T12:56:13;10.70;;;8.20;;
71435;SDS011;59251;51.326;12.370;2023-08-17T12:58:41;14.10;;;10.50;;
71435;SDS011;59251;51.326;12.370;2023-08-17T13:01:08;12.18;;;8.10;;
71435;SDS011;59251;51.326;12.370;2023-08-17T13:03:34;10.90;;;7.57;;
71435;SDS011;59251;51.326;12.370;2023-08-17T13:06:01;10.18;;;7.60;;
71435;SDS011;59251;51.326;12.370;2023-08-17T13:08:28;11.00;;;8.48;;
71435;SDS011;59251;51.326;12.370;2023-08-17T13:10:55;12.45;;;8.52;;
71435;SDS011;59251;51.326;12.370;2023-08-17T13:13:21;10.68;;;7.97;;
71435;SDS011;59251;51.326;12.370;2023-08-17T13:15:50;11.07;;;8.00;;
71435;SDS011;59251;51.326;12.370;2023-08-17T13:18:16;13.45;;;7.90;;
71435;SDS011;59251;51.326;12.370;2023-08-17T13:20:43;14.07;;;7.90;;
71435;SDS011;59251;51.326;12.370;2023-08-17T13:23:10;11.52;;;8.13;;
71435;SDS011;59251;51.326;12.370;2023-08-17T13:25:37;15.38;;;8.02;;
71435;SDS011;59251;51.326;12.370;2023-08-17T13:28:04;12.93;;;7.77;;
71435;SDS011;59251;51.326;12.370;2023-08-17T13:30:31;12.48;;;8.48;;
71435;SDS011;59251;51.326;12.370;2023-08-17T13:32:59;10.32;;;8.07;;
71435;SDS011;59251;51.326;12.370;2023-08-17T13:35:26;10.40;;;7.65;;
71435;SDS011;59251;51.326;12.370;2023-08-17T13:37:52;12.93;;;8.40;;
71435;SDS011;59251;51.326;12.370;2023-08-17T13:40:19;9.57;;;7.50;;
71435;SDS011;59251;51.326;12.370;2023-08-17T13:42:46;10.85;;;7.60;;
71435;SDS011;59251;51.326;12.370;2023-08-17T13:45:13;10.60;;;8.02;;
71435;SDS011;59251;51.326;12.370;2023-08-17T13:47:40;10.65;;;8.13;;
71435;SDS011;59251;51.326;12.370;2023-08-17T13:50:08;11.27;;;7.55;;
71435;SDS011;59251;51.326;12.370;2023-08-17T13:52:35;10.50;;;7.73;;
71435;SDS011;59251;51.326;12.370;2023-08-17T13:55:02;11.50;;;7.97;;
71435;SDS011;59251;51.326;12.370;2023-08-17T13:57:29;12.05;;;9.73;;
71435;SDS011;59251;51.326;12.370;2023-08-17T13:59:56;12.25;;;8.55;;
71435;SDS011;59251;51.326;12.370;2023-08-17T14:02:23;11.98;;;8.23;;
71435;SDS011;59251;51.326;12.370;2023-08-17T14:04:49;10.43;;;7.30;;
71435;SDS011;59251;51.326;12.370;2023-08-17T14:07:17;12.00;;;8.38;;
71435;SDS011;59251;51.326;12.370;2023-08-17T14:09:44;14.45;;;8.20;;
71435;SDS011;59251;51.326;12.370;2023-08-17T14:12:11;11.23;;;8.10;;
71435;SDS011;59251;51.326;12.370;2023-08-17T14:14:38;11.82;;;7.80;;
71435;SDS011;59251;51.326;12.370;2023-08-17T14:17:04;9.80;;;7.07;;
71435;SDS011;59251;51.326;12.370;2023-08-17T14:19:31;10.43;;;7.80;;
71435;SDS011;59251;51.326;12.370;2023-08-17T14:21:58;11.48;;;7.45;;
71435;SDS011;59251;51.326;12.370;2023-08-17T14:24:27;12.80;;;7.57;;
71435;SDS011;59251;51.326;12.370;2023-08-17T14:26:54;10.50;;;7.25;;
71435;SDS011;59251;51.326;12.370;2023-08-17T14:29:22;11.50;;;7.70;;